Time;durP1;ratioP1;P1;durP2;ratioP2;P2;SDS_P1;SDS_P2;PMS_P1;PMS_P2;Temp;Humidity;BMP_temperature;BMP_pressure;BME280_temperature;BME280_humidity;BME280_pressure;Samples;Min_cycle;Max_cycle;Signal;HPM_P1;HPM_P2
2023/05/13 00:01:28;;;;;;;;;;;;;;;10.79;48.70;99458.44;131355;1315;544553;-66
2023/05/13 00:04:32;;;;;;;;;;;;;;;10.84;49.20;99453.99;134735;1288;22506;-65
2023/05/13 00:07:35;;;;;;;;;;;;;;;10.88;49.68;99449.53;134721;1288;22514;-64
2023/05/13 00:10:38;;;;;;;;;;;;;;;10.88;49.89;99451.80;134774;1270;22533;-65
2023/05/13 00:13:41;;;;;;;;;;;;;;;10.98;49.96;99447.13;130919;1283;5368746;-65
2023/05/13 00:16:48;;;;;;;;;;;;;;;11.04;49.55;99448.20;135118;1283;22504;-66
2023/05/13 00:19:53;;;;;;;;;;;;;;;11.09;49.25;99451.94;135120;1283;22599;-65
2023/05/13 00:22:56;;;;;;;;;;;;;;;11.16;49.21;99449.86;135096;1262;22977;-66
2023/05/13 00:25:59;;;;;;;;;;;;;;;11.21;48.77;99449.73;135102;1283;22497;-67
2023/05/13 00:29:01;;;;;;;;;;;;;;;11.25;49.00;99450.20;135058;1283;24359;-70
2023/05/13 00:32:06;;;;;;;;;;;;;;;11.27;48.68;99446.46;135108;1283;22500;-68
2023/05/13 00:35:09;;;;;;;;;;;;;;;11.24;49.04;99448.15;135140;1283;22525;-66
2023/05/13 00:38:12;;;;;;;;;;;;;;;11.24;48.99;99440.30;135104;1283;22510;-66
2023/05/13 00:41:16;;;;;;;;;;;;;;;11.14;48.97;99442.44;135103;1283;24207;-68
2023/05/13 00:44:20;;;;;;;;;;;;;;;10.97;49.37;99441.54;135102;1283;22511;-71
2023/05/13 00:47:22;;;;;;;;;;;;;;;10.95;49.56;99445.72;135116;1283;22620;-68
2023/05/13 00:50:29;;;;;;;;;;;;;;;10.79;49.36;99448.27;135116;1283;22539;-66
2023/05/13 00:53:31;;;;;;;;;;;;;;;10.55;50.38;99450.38;135087;1283;22504;-70
2023/05/13 00:56:41;;;;;;;;;;;;;;;10.41;50.30;99447.60;135104;1283;24212;-67
2023/05/13 00:59:44;;;;;;;;;;;;;;;10.36;50.38;99451.13;135121;1283;22510;-65
2023/05/13 01:02:50;;;;;;;;;;;;;;;10.39;50.15;99452.56;135098;1283;22515;-66
2023/05/13 01:05:55;;;;;;;;;;;;;;;10.36;50.13;99478.05;135139;1283;22522;-69
2023/05/13 01:08:58;;;;;;;;;;;;;;;10.35;50.70;99475.83;135607;1279;22497;-67
2023/05/13 01:12:01;;;;;;;;;;;;;;;10.41;50.30;99483.96;135620;1279;22503;-68
2023/05/13 01:15:04;;;;;;;;;;;;;;;10.37;51.03;99480.28;135635;1279;22512;-67
2023/05/13 01:18:07;;;;;;;;;;;;;;;10.35;52.00;99473.75;135625;1279;22507;-65
2023/05/13 01:21:11;;;;;;;;;;;;;;;10.47;51.65;99473.15;135601;1279;22500;-68
2023/05/13 01:24:15;;;;;;;;;;;;;;;10.49;52.06;99472.52;135587;1279;24259;-66
2023/05/13 01:27:17;;;;;;;;;;;;;;;10.46;51.95;99465.36;135551;1279;22515;-66
2023/05/13 01:30:24;;;;;;;;;;;;;;;10.42;52.87;99465.91;135545;1279;22504;-65
2023/05/13 01:33:26;;;;;;;;;;;;;;;10.46;52.89;99462.73;135592;1279;22500;-66
2023/05/13 01:36:33;;;;;;;;;;;;;;;10.53;52.07;99458.35;135639;1279;22500;-67
2023/05/13 01:39:36;;;;;;;;;;;;;;;10.51;52.94;99462.10;135656;1279;22504;-64
2023/05/13 01:42:42;;;;;;;;;;;;;;;10.62;52.52;99463.30;135531;1268;22535;-66
2023/05/13 01:45:45;;;;;;;;;;;;;;;10.64;51.87;99469.48;135569;1262;22791;-66
2023/05/13 01:48:48;;;;;;;;;;;;;;;10.65;52.60;99470.87;135619;1279;22545;-68
2023/05/13 01:51:51;;;;;;;;;;;;;;;10.66;51.53;99474.31;135641;1279;22513;-69
2023/05/13 01:54:54;;;;;;;;;;;;;;;10.66;51.08;99476.37;135662;1279;24225;-65
2023/05/13 01:57:57;;;;;;;;;;;;;;;10.61;51.71;99476.46;135632;1279;22511;-64
2023/05/13 02:00:59;;;;;;;;;;;;;;;10.67;51.20;99472.34;135616;1261;22649;-68
2023/05/13 02:04:02;;;;;;;;;;;;;;;10.40;51.56;99471.73;135614;1279;24266;-67
2023/05/13 02:07:09;;;;;;;;;;;;;;;10.29;51.83;99470.70;135438;1279;22675;-67
2023/05/13 02:10:12;;;;;;;;;;;;;;;10.34;51.65;99470.13;135592;1279;25316;-67
2023/05/13 02:13:15;;;;;;;;;;;;;;;10.25;51.74;99474.73;135604;1279;22510;-64
2023/05/13 02:16:19;;;;;;;;;;;;;;;10.15;51.98;99478.57;135651;1279;22573;-65
2023/05/13 02:19:23;;;;;;;;;;;;;;;10.00;53.25;99474.18;135620;1279;24378;-69
2023/05/13 02:22:26;;;;;;;;;;;;;;;9.89;54.14;99476.29;135653;1279;22524;-66
2023/05/13 02:25:29;;;;;;;;;;;;;;;9.89;54.47;99476.30;135613;1279;22658;-68
2023/05/13 02:28:31;;;;;;;;;;;;;;;9.94;54.67;99473.13;135653;1260;22503;-66
2023/05/13 02:31:35;;;;;;;;;;;;;;;10.00;54.98;99470.00;135538;1279;25399;-64
2023/05/13 02:34:38;;;;;;;;;;;;;;;10.02;54.72;99474.29;135516;1279;22534;-66
2023/05/13 02:37:43;;;;;;;;;;;;;;;10.00;54.31;99476.46;135644;1279;22523;-65
2023/05/13 02:40:47;;;;;;;;;;;;;;;10.04;54.44;99479.58;135585;1279;22496;-66
2023/05/13 02:43:50;;;;;;;;;;;;;;;10.04;53.49;99477.66;135586;1279;22510;-66
2023/05/13 02:46:53;;;;;;;;;;;;;;;10.03;53.41;99481.57;135542;1279;22561;-69
2023/05/13 02:49:56;;;;;;;;;;;;;;;9.98;54.03;99485.30;135608;1279;22518;-67
2023/05/13 02:53:00;;;;;;;;;;;;;;;9.96;53.77;99490.48;135624;1279;22585;-69
2023/05/13 02:56:03;;;;;;;;;;;;;;;9.90;53.90;99493.01;135540;1279;22617;-67
2023/05/13 02:59:06;;;;;;;;;;;;;;;9.93;53.89;99499.37;135624;1279;22497;-68
2023/05/13 03:02:08;;;;;;;;;;;;;;;9.80;54.82;99500.30;135596;1279;22508;-68
2023/05/13 03:05:11;;;;;;;;;;;;;;;9.68;54.83;99502.23;135560;1279;22512;-66
2023/05/13 03:08:14;;;;;;;;;;;;;;;9.71;54.57;99502.31;135569;1261;22519;-72
2023/05/13 03:11:17;;;;;;;;;;;;;;;9.64;55.02;99512.75;135629;1256;22511;-68
2023/05/13 03:14:23;;;;;;;;;;;;;;;9.74;54.52;99508.44;135636;1279;22500;-69
2023/05/13 03:17:29;;;;;;;;;;;;;;;9.63;55.11;99511.91;135592;1279;22501;-68
2023/05/13 03:20:33;;;;;;;;;;;;;;;9.56;55.22;99509.27;135649;1279;22500;-70
2023/05/13 03:23:39;;;;;;;;;;;;;;;9.52;55.51;99510.83;135625;1279;22534;-66
2023/05/13 03:26:43;;;;;;;;;;;;;;;9.56;55.82;99510.33;135613;1279;22500;-65
2023/05/13 03:29:47;;;;;;;;;;;;;;;9.63;55.28;99508.58;135448;1279;24395;-66
2023/05/13 03:32:50;;;;;;;;;;;;;;;9.67;55.67;99507.38;135648;1279;22505;-67
2023/05/13 03:35:54;;;;;;;;;;;;;;;9.81;55.55;99510.89;135626;1279;22506;-70
2023/05/13 03:38:58;;;;;;;;;;;;;;;9.95;55.23;99518.45;135597;1279;22500;-67
2023/05/13 03:42:01;;;;;;;;;;;;;;;10.05;55.50;99519.04;135550;1279;22635;-66
2023/05/13 03:45:05;;;;;;;;;;;;;;;10.22;55.27;99523.32;135644;1279;24190;-69
2023/05/13 03:48:08;;;;;;;;;;;;;;;10.42;55.03;99530.23;135617;1279;22564;-66
2023/05/13 03:51:14;;;;;;;;;;;;;;;10.53;55.30;99534.05;135597;1279;23156;-67
2023/05/13 03:54:17;;;;;;;;;;;;;;;10.76;54.99;99533.64;135591;1262;23535;-67
2023/05/13 03:57:20;;;;;;;;;;;;;;;10.92;54.45;99536.85;135608;1279;24357;-66
2023/05/13 04:00:23;;;;;;;;;;;;;;;11.07;54.48;99545.20;135923;1275;22506;-70
2023/05/13 04:03:25;;;;;;;;;;;;;;;11.24;54.58;99547.61;135968;1275;22528;-66
2023/05/13 04:06:28;;;;;;;;;;;;;;;11.37;54.57;99552.00;135858;1275;22517;-68
2023/05/13 04:09:46;;;;;;;;;;;;;;;11.53;54.93;99554.70;135973;1275;25220;-65
2023/05/13 04:12:49;;;;;;;;;;;;;;;11.88;54.43;99555.95;135961;1275;22521;-67
2023/05/13 04:15:54;;;;;;;;;;;;;;;12.05;54.89;99553.27;135935;1275;22544;-67
2023/05/13 04:18:57;;;;;;;;;;;;;;;12.22;55.14;99557.27;135938;1275;22497;-66
2023/05/13 04:22:00;;;;;;;;;;;;;;;12.27;54.57;99557.56;135942;1275;22508;-67
2023/05/13 04:25:03;;;;;;;;;;;;;;;12.42;54.96;99560.90;135847;1276;22509;-67
2023/05/13 04:28:06;;;;;;;;;;;;;;;12.60;55.85;99554.78;135943;1275;22517;-66
2023/05/13 04:31:10;;;;;;;;;;;;;;;12.81;56.41;99562.13;135930;1275;22502;-67
2023/05/13 04:34:13;;;;;;;;;;;;;;;13.07;55.85;99561.86;135903;1275;25386;-67
2023/05/13 04:37:15;;;;;;;;;;;;;;;13.30;54.89;99564.36;135903;1275;22494;-66
2023/05/13 04:40:18;;;;;;;;;;;;;;;13.55;53.55;99564.63;135917;1276;22504;-67
2023/05/13 04:43:21;;;;;;;;;;;;;;;13.81;53.11;99563.90;135897;1275;22500;-66
2023/05/13 04:46:25;;;;;;;;;;;;;;;14.19;52.39;99564.84;135914;1275;22509;-67
2023/05/13 04:49:28;;;;;;;;;;;;;;;14.50;51.56;99567.76;135902;1275;22507;-67
2023/05/13 04:52:31;;;;;;;;;;;;;;;14.78;50.59;99571.77;135904;1275;22504;-65
2023/05/13 04:55:34;;;;;;;;;;;;;;;15.08;50.45;99570.84;135886;1260;23855;-67
2023/05/13 04:58:37;;;;;;;;;;;;;;;15.48;49.80;99567.10;135888;1255;23214;-64
2023/05/13 05:01:40;;;;;;;;;;;;;;;15.75;49.35;99567.30;135907;1276;23779;-67
2023/05/13 05:04:42;;;;;;;;;;;;;;;16.07;48.91;99568.73;135851;1275;22515;-66
2023/05/13 05:07:45;;;;;;;;;;;;;;;16.44;47.95;99567.53;135906;1275;22491;-66
2023/05/13 05:10:48;;;;;;;;;;;;;;;16.61;47.81;99565.77;135915;1275;22504;-66
2023/05/13 05:13:51;;;;;;;;;;;;;;;16.84;47.21;99568.58;135904;1275;22504;-67
2023/05/13 05:16:53;;;;;;;;;;;;;;;17.18;46.83;99569.09;135922;1275;22505;-67
2023/05/13 05:19:56;;;;;;;;;;;;;;;17.26;46.74;99569.52;135873;1276;22610;-67
2023/05/13 05:22:59;;;;;;;;;;;;;;;17.31;46.79;99572.71;135947;1276;22520;-66
2023/05/13 05:26:02;;;;;;;;;;;;;;;17.50;46.48;99573.84;135944;1275;22549;-66
2023/05/13 05:29:05;;;;;;;;;;;;;;;17.77;45.88;99569.62;135851;1256;22509;-67
2023/05/13 05:32:08;;;;;;;;;;;;;;;17.98;45.26;99572.42;135908;1275;22613;-66
2023/05/13 05:35:11;;;;;;;;;;;;;;;18.29;45.10;99568.21;135882;1275;22504;-66
2023/05/13 05:38:14;;;;;;;;;;;;;;;18.40;44.74;99567.42;135939;1275;22500;-66
2023/05/13 05:41:21;;;;;;;;;;;;;;;18.54;44.03;99566.85;135934;1275;22530;-66
2023/05/13 05:44:23;;;;;;;;;;;;;;;18.72;43.37;99571.54;135950;1255;22515;-67
2023/05/13 05:47:26;;;;;;;;;;;;;;;18.95;43.06;99572.02;135982;1275;22504;-66
2023/05/13 05:50:29;;;;;;;;;;;;;;;18.99;42.65;99574.98;135959;1275;22507;-67
2023/05/13 05:53:31;;;;;;;;;;;;;;;19.13;42.57;99571.19;135953;1255;22535;-66
2023/05/13 05:56:35;;;;;;;;;;;;;;;19.47;41.02;99574.85;135943;1276;22496;-67
2023/05/13 05:59:37;;;;;;;;;;;;;;;19.71;40.58;99575.76;135950;1275;22502;-66
2023/05/13 06:02:41;;;;;;;;;;;;;;;19.88;40.57;99576.44;135945;1275;22515;-66
2023/05/13 06:05:44;;;;;;;;;;;;;;;19.94;39.08;99577.23;135937;1256;22511;-67
2023/05/13 06:08:46;;;;;;;;;;;;;;;20.08;38.93;99573.84;135933;1275;22607;-66
2023/05/13 06:11:49;;;;;;;;;;;;;;;20.16;39.26;99581.65;135933;1275;22500;-66
2023/05/13 06:14:52;;;;;;;;;;;;;;;20.36;39.33;99578.11;135926;1275;22507;-68
2023/05/13 06:17:55;;;;;;;;;;;;;;;20.60;39.19;99583.04;135928;1275;22513;-67
2023/05/13 06:21:00;;;;;;;;;;;;;;;20.89;37.10;99579.04;135921;1276;24460;-68
2023/05/13 06:24:03;;;;;;;;;;;;;;;20.79;36.51;99580.80;135925;1275;22511;-66
2023/05/13 06:27:05;;;;;;;;;;;;;;;20.75;35.73;99582.61;135908;1275;24246;-67
2023/05/13 06:30:08;;;;;;;;;;;;;;;20.73;35.53;99584.38;135955;1275;22499;-67
2023/05/13 06:33:11;;;;;;;;;;;;;;;21.00;37.34;99585.29;135932;1275;22504;-67
2023/05/13 06:36:15;;;;;;;;;;;;;;;21.33;37.33;99581.58;135938;1256;22481;-67
2023/05/13 06:39:18;;;;;;;;;;;;;;;21.66;36.21;99578.11;135942;1275;22508;-68
2023/05/13 06:42:21;;;;;;;;;;;;;;;21.74;34.77;99582.65;135946;1276;23765;-67
2023/05/13 06:45:24;;;;;;;;;;;;;;;21.79;34.92;99584.00;135927;1276;22500;-68
2023/05/13 06:48:27;;;;;;;;;;;;;;;21.99;35.21;99580.64;135928;1276;22521;-69
2023/05/13 06:51:34;;;;;;;;;;;;;;;22.11;35.03;99581.92;135934;1276;22501;-66
2023/05/13 06:54:38;;;;;;;;;;;;;;;22.26;34.19;99590.33;135948;1275;22535;-66
2023/05/13 06:57:44;;;;;;;;;;;;;;;22.15;33.02;99591.91;135899;1255;22487;-67
2023/05/13 07:00:47;;;;;;;;;;;;;;;22.02;33.05;99589.05;135930;1275;22614;-68
2023/05/13 07:03:50;;;;;;;;;;;;;;;22.14;33.58;99589.48;135933;1276;22499;-67
2023/05/13 07:06:53;;;;;;;;;;;;;;;22.23;33.19;99585.94;135919;1276;22504;-68
2023/05/13 07:09:56;;;;;;;;;;;;;;;22.35;32.93;99588.73;135927;1276;26457;-68
2023/05/13 07:12:59;;;;;;;;;;;;;;;22.54;33.42;99585.20;135730;1275;22497;-67
2023/05/13 07:16:02;;;;;;;;;;;;;;;22.68;32.54;99580.67;135699;1275;23866;-68
2023/05/13 07:19:05;;;;;;;;;;;;;;;22.82;32.80;99579.34;135844;1276;22520;-67
2023/05/13 07:22:08;;;;;;;;;;;;;;;22.87;31.90;99573.30;135915;1276;22548;-67
2023/05/13 07:25:11;;;;;;;;;;;;;;;22.86;31.25;99577.41;135903;1276;22497;-67
2023/05/13 07:28:14;;;;;;;;;;;;;;;22.96;31.70;99577.32;135965;1276;22506;-67
2023/05/13 07:31:17;;;;;;;;;;;;;;;23.03;30.95;99569.74;135956;1264;25706;-68
2023/05/13 07:34:20;;;;;;;;;;;;;;;22.88;30.61;99568.33;135997;1276;22501;-67
2023/05/13 07:37:23;;;;;;;;;;;;;;;22.91;31.01;99570.55;135866;1275;22504;-68
2023/05/13 07:40:27;;;;;;;;;;;;;;;23.12;30.65;99570.40;135928;1275;22497;-68
2023/05/13 07:43:33;;;;;;;;;;;;;;;23.28;30.25;99573.48;135954;1275;22610;-67
2023/05/13 07:46:36;;;;;;;;;;;;;;;23.29;30.57;99573.02;135953;1275;22500;-68
2023/05/13 07:49:39;;;;;;;;;;;;;;;23.32;29.87;99572.52;135931;1276;25379;-67
2023/05/13 07:52:42;;;;;;;;;;;;;;;23.33;29.53;99571.11;135897;1275;22506;-67
2023/05/13 07:55:48;;;;;;;;;;;;;;;23.56;30.60;99566.29;135969;1255;22497;-69
2023/05/13 07:58:52;;;;;;;;;;;;;;;23.85;29.85;99567.52;135931;1275;22487;-68
2023/05/13 08:02:02;;;;;;;;;;;;;;;24.00;29.47;99552.82;135924;1275;22559;-68
2023/05/13 08:05:06;;;;;;;;;;;;;;;24.04;28.88;99562.23;135961;1276;22516;-68
2023/05/13 08:08:11;;;;;;;;;;;;;;;24.08;28.43;99564.77;135902;1276;22543;-68
2023/05/13 08:11:14;;;;;;;;;;;;;;;24.14;28.20;99561.83;135939;1276;22578;-70
2023/05/13 08:14:18;;;;;;;;;;;;;;;24.08;28.06;99561.95;135920;1275;22503;-70
2023/05/13 08:17:21;;;;;;;;;;;;;;;23.89;26.44;99555.23;135930;1276;22512;-69
2023/05/13 08:20:28;;;;;;;;;;;;;;;23.84;27.69;99569.63;135962;1276;22508;-70
2023/05/13 08:23:31;;;;;;;;;;;;;;;24.06;27.47;99565.62;135962;1275;22501;-69
2023/05/13 08:26:34;;;;;;;;;;;;;;;24.09;27.28;99569.05;135927;1276;22532;-70
2023/05/13 08:29:38;;;;;;;;;;;;;;;24.09;27.26;99565.04;135969;1276;22620;-69
2023/05/13 08:32:41;;;;;;;;;;;;;;;24.22;28.05;99569.42;135969;1276;25231;-69
2023/05/13 08:35:45;;;;;;;;;;;;;;;24.38;27.37;99564.63;135940;1275;22512;-71
2023/05/13 08:38:49;;;;;;;;;;;;;;;24.35;26.89;99574.75;135902;1276;22523;-71
2023/05/13 08:41:53;;;;;;;;;;;;;;;24.24;26.88;99572.81;135927;1276;22527;-68
2023/05/13 08:44:56;;;;;;;;;;;;;;;24.27;27.37;99565.88;135971;1275;22505;-71
2023/05/13 08:48:00;;;;;;;;;;;;;;;24.31;26.81;99565.38;135940;1275;22514;-71
2023/05/13 08:51:03;;;;;;;;;;;;;;;24.25;26.65;99560.35;135983;1275;22607;-69
2023/05/13 08:54:06;;;;;;;;;;;;;;;24.31;27.01;99560.23;135943;1276;25393;-70
2023/05/13 08:57:11;;;;;;;;;;;;;;;24.43;27.16;99554.14;135875;1276;22508;-68
2023/05/13 09:00:15;;;;;;;;;;;;;;;24.67;27.13;99550.34;135933;1276;22510;-69
2023/05/13 09:03:18;;;;;;;;;;;;;;;24.78;27.46;99546.42;135985;1275;22530;-68
2023/05/13 09:06:22;;;;;;;;;;;;;;;24.98;27.35;99544.05;135903;1275;22533;-68
2023/05/13 09:09:25;;;;;;;;;;;;;;;25.08;26.78;99542.74;135930;1275;22505;-70
2023/05/13 09:12:27;;;;;;;;;;;;;;;25.24;26.68;99539.27;135950;1276;23855;-68
2023/05/13 09:15:31;;;;;;;;;;;;;;;25.23;26.17;99533.45;135956;1276;22487;-72
2023/05/13 09:18:34;;;;;;;;;;;;;;;25.19;26.25;99534.02;135983;1275;22498;-69
2023/05/13 09:21:39;;;;;;;;;;;;;;;25.20;26.40;99533.05;135962;1276;22509;-70
2023/05/13 09:24:43;;;;;;;;;;;;;;;25.31;26.34;99530.40;135961;1276;22496;-68
2023/05/13 09:27:45;;;;;;;;;;;;;;;25.47;26.31;99528.83;135931;1273;22513;-69
2023/05/13 09:30:50;;;;;;;;;;;;;;;25.71;26.65;99526.71;135951;1276;22521;-70
2023/05/13 09:33:54;;;;;;;;;;;;;;;25.94;26.53;99519.27;135974;1275;22512;-70
2023/05/13 09:36:57;;;;;;;;;;;;;;;26.05;25.90;99524.42;135986;1276;22513;-70
2023/05/13 09:40:01;;;;;;;;;;;;;;;26.05;25.85;99514.80;135969;1276;22488;-67
2023/05/13 09:43:06;;;;;;;;;;;;;;;26.17;25.59;99506.40;135964;1276;22519;-69
2023/05/13 09:46:09;;;;;;;;;;;;;;;26.24;25.22;99509.01;135957;1276;22539;-69
2023/05/13 09:49:12;;;;;;;;;;;;;;;26.25;25.71;99509.42;135952;1275;22506;-70
2023/05/13 09:52:16;;;;;;;;;;;;;;;26.32;25.27;99501.84;135898;1276;25239;-67
2023/05/13 09:55:19;;;;;;;;;;;;;;;26.41;25.54;99503.52;135953;1275;22503;-68
2023/05/13 09:58:23;;;;;;;;;;;;;;;26.57;25.84;99498.37;135958;1276;22510;-68
2023/05/13 10:01:27;;;;;;;;;;;;;;;26.40;25.25;99501.56;135941;1276;25326;-67
2023/05/13 10:04:30;;;;;;;;;;;;;;;26.03;25.23;99500.46;135929;1276;22500;-68
2023/05/13 10:07:33;;;;;;;;;;;;;;;25.55;24.98;99494.61;135992;1275;22501;-70
2023/05/13 10:10:37;;;;;;;;;;;;;;;25.73;24.56;99487.41;135929;1276;22509;-68
2023/05/13 10:13:39;;;;;;;;;;;;;;;25.97;24.69;99489.55;135930;1261;22508;-68
2023/05/13 10:16:44;;;;;;;;;;;;;;;26.11;24.56;99488.77;135962;1276;22504;-68
2023/05/13 10:19:47;;;;;;;;;;;;;;;25.73;24.62;99487.82;135824;1276;22526;-71
2023/05/13 10:22:50;;;;;;;;;;;;;;;25.97;24.98;99484.02;135931;1276;22505;-70
2023/05/13 10:25:52;;;;;;;;;;;;;;;26.46;25.30;99477.73;136013;1275;22515;-69
2023/05/13 10:28:56;;;;;;;;;;;;;;;26.72;24.78;99484.08;135909;1276;25396;-68
2023/05/13 10:31:58;;;;;;;;;;;;;;;27.04;24.26;99469.84;135869;1276;22497;-71
2023/05/13 10:35:01;;;;;;;;;;;;;;;27.06;24.03;99470.73;135827;1276;22540;-67
2023/05/13 10:38:04;;;;;;;;;;;;;;;27.07;23.25;99472.94;135834;1273;22527;-67
2023/05/13 10:41:08;;;;;;;;;;;;;;;27.06;23.81;99473.73;135828;1276;22661;-66
2023/05/13 10:44:11;;;;;;;;;;;;;;;27.41;23.75;99476.66;135768;1276;22522;-65
2023/05/13 10:47:13;;;;;;;;;;;;;;;27.74;22.53;99476.86;135885;1260;22714;-70
2023/05/13 10:50:17;;;;;;;;;;;;;;;27.89;22.85;99472.24;135944;1276;22507;-70
2023/05/13 10:53:20;;;;;;;;;;;;;;;28.15;22.59;99470.83;135897;1276;22511;-67
2023/05/13 10:56:23;;;;;;;;;;;;;;;28.03;22.44;99472.61;135934;1276;22505;-68
2023/05/13 10:59:30;;;;;;;;;;;;;;;28.22;22.57;99468.11;135928;1276;22513;-72
2023/05/13 11:02:41;;;;;;;;;;;;;;;28.75;23.27;99468.63;135831;1276;22511;-68
2023/05/13 11:05:45;;;;;;;;;;;;;;;29.09;21.96;99469.73;135964;1266;22516;-69
2023/05/13 11:08:56;;;;;;;;;;;;;;;29.15;22.26;99470.39;135910;1276;22492;-67
2023/05/13 11:11:59;;;;;;;;;;;;;;;29.65;22.14;99462.27;135987;1276;22517;-72
2023/05/13 11:15:03;;;;;;;;;;;;;;;29.55;21.79;99471.77;135949;1276;22508;-70
2023/05/13 11:18:07;;;;;;;;;;;;;;;28.64;21.85;99480.19;135930;1276;22510;-70
2023/05/13 11:21:10;;;;;;;;;;;;;;;27.50;22.05;99477.02;135933;1276;22497;-71
2023/05/13 11:24:13;;;;;;;;;;;;;;;26.76;22.62;99471.89;135967;1276;22503;-71
2023/05/13 11:27:19;;;;;;;;;;;;;;;26.00;22.88;99470.24;135961;1276;22611;-71
2023/05/13 11:30:23;;;;;;;;;;;;;;;25.38;23.19;99470.16;135950;1276;22519;-68
2023/05/13 11:33:26;;;;;;;;;;;;;;;25.00;23.79;99484.46;135982;1276;22504;-70
2023/05/13 11:36:28;;;;;;;;;;;;;;;25.35;24.14;99480.63;135886;1276;22983;-72
2023/05/13 11:39:31;;;;;;;;;;;;;;;25.22;23.79;99482.09;135956;1276;22512;-69
2023/05/13 11:42:36;;;;;;;;;;;;;;;24.94;24.04;99482.28;136031;1276;23382;-71
2023/05/13 11:45:38;;;;;;;;;;;;;;;24.89;24.48;99480.66;135942;1276;22504;-67
2023/05/13 11:48:43;;;;;;;;;;;;;;;24.71;24.68;99480.11;135985;1276;22504;-65
2023/05/13 11:51:46;;;;;;;;;;;;;;;24.65;24.64;99480.98;135935;1276;22545;-65
2023/05/13 11:54:49;;;;;;;;;;;;;;;24.82;24.77;99480.17;135951;1276;22499;-69
2023/05/13 11:57:52;;;;;;;;;;;;;;;25.45;24.65;99471.92;135958;1276;22520;-66
2023/05/13 12:00:55;;;;;;;;;;;;;;;26.02;24.76;99471.35;135982;1276;22521;-67
2023/05/13 12:03:58;;;;;;;;;;;;;;;26.30;24.00;99474.30;135963;1276;22497;-73
2023/05/13 12:07:02;;;;;;;;;;;;;;;25.81;23.35;99474.17;136006;1276;22501;-68
2023/05/13 12:10:05;;;;;;;;;;;;;;;25.31;24.24;99486.23;135934;1262;22592;-71
2023/05/13 12:13:08;;;;;;;;;;;;;;;25.67;24.32;99482.31;135916;1276;22688;-67
2023/05/13 12:16:11;;;;;;;;;;;;;;;25.56;24.02;99477.16;131865;1258;5395909;-69
2023/05/13 12:19:13;;;;;;;;;;;;;;;25.99;24.68;99475.32;135908;1276;25117;-67
2023/05/13 12:22:17;;;;;;;;;;;;;;;26.47;23.83;99470.48;135929;1276;22517;-69
2023/05/13 12:25:20;;;;;;;;;;;;;;;26.11;23.62;99483.63;135962;1276;24375;-70
2023/05/13 12:28:23;;;;;;;;;;;;;;;25.96;24.10;99482.83;135937;1254;22609;-67
2023/05/13 12:31:25;;;;;;;;;;;;;;;26.65;24.30;99473.90;135925;1276;22511;-67
2023/05/13 12:34:28;;;;;;;;;;;;;;;27.40;23.79;99478.30;135971;1260;24209;-70
2023/05/13 12:37:33;;;;;;;;;;;;;;;27.34;23.07;99478.33;135983;1276;22504;-68
2023/05/13 12:40:36;;;;;;;;;;;;;;;26.70;23.25;99489.46;135972;1276;22484;-71
2023/05/13 12:43:39;;;;;;;;;;;;;;;26.08;23.45;99489.34;135969;1276;22627;-71
2023/05/13 12:46:42;;;;;;;;;;;;;;;25.57;24.15;99488.29;135962;1276;25500;-66
2023/05/13 12:49:46;;;;;;;;;;;;;;;25.63;24.91;99485.52;135975;1276;22515;-67
2023/05/13 12:52:49;;;;;;;;;;;;;;;26.79;25.29;99484.42;135967;1276;22563;-68
2023/05/13 12:55:52;;;;;;;;;;;;;;;27.51;23.60;99473.61;135900;1276;22512;-66
2023/05/13 12:58:56;;;;;;;;;;;;;;;28.07;24.16;99475.40;135958;1276;22502;-69
2023/05/13 13:01:59;;;;;;;;;;;;;;;28.84;23.62;99470.23;135951;1276;22515;-72
2023/05/13 13:05:02;;;;;;;;;;;;;;;29.05;23.10;99467.09;135970;1276;22509;-67
2023/05/13 13:08:06;;;;;;;;;;;;;;;28.89;22.99;99474.05;135992;1276;22509;-69
2023/05/13 13:11:13;;;;;;;;;;;;;;;28.19;22.79;99477.86;135969;1276;22590;-69
2023/05/13 13:14:17;;;;;;;;;;;;;;;27.20;23.13;99472.59;135960;1275;22511;-67
2023/05/13 13:17:23;;;;;;;;;;;;;;;27.29;24.58;99477.48;136000;1275;22514;-68
2023/05/13 13:20:26;;;;;;;;;;;;;;;27.34;23.71;99479.30;135958;1276;22498;-71
2023/05/13 13:23:30;;;;;;;;;;;;;;;26.82;23.46;99474.97;135989;1275;22512;-69
2023/05/13 13:26:32;;;;;;;;;;;;;;;26.35;23.85;99470.75;135901;1264;22606;-69
2023/05/13 13:29:35;;;;;;;;;;;;;;;26.10;24.11;99468.52;135982;1276;25266;-68
2023/05/13 13:32:38;;;;;;;;;;;;;;;25.99;24.52;99469.42;136008;1276;22516;-68
2023/05/13 13:35:41;;;;;;;;;;;;;;;25.82;24.67;99470.95;135965;1257;22962;-67
2023/05/13 13:38:47;;;;;;;;;;;;;;;26.39;25.45;99467.49;135947;1276;22524;-66
2023/05/13 13:41:50;;;;;;;;;;;;;;;26.90;24.20;99455.89;136022;1276;24208;-69
2023/05/13 13:44:53;;;;;;;;;;;;;;;27.21;24.23;99458.36;135990;1276;22567;-68
2023/05/13 13:47:56;;;;;;;;;;;;;;;27.59;23.58;99458.88;136007;1275;22515;-67
2023/05/13 13:50:59;;;;;;;;;;;;;;;27.16;23.43;99460.15;136005;1276;22543;-70
2023/05/13 13:54:02;;;;;;;;;;;;;;;26.73;23.62;99460.05;135983;1258;22510;-67
2023/05/13 13:57:05;;;;;;;;;;;;;;;26.37;24.15;99460.05;135852;1276;25248;-69
2023/05/13 14:00:08;;;;;;;;;;;;;;;26.14;24.52;99463.73;135990;1257;22507;-70
2023/05/13 14:03:11;;;;;;;;;;;;;;;26.09;24.66;99468.27;135923;1276;22592;-67
2023/05/13 14:06:13;;;;;;;;;;;;;;;26.01;24.46;99467.05;135899;1258;22516;-67
2023/05/13 14:09:16;;;;;;;;;;;;;;;25.90;24.66;99471.89;136023;1254;22526;-68
2023/05/13 14:12:21;;;;;;;;;;;;;;;25.94;24.98;99471.95;136016;1276;22522;-67
2023/05/13 14:15:27;;;;;;;;;;;;;;;26.02;25.02;99465.52;135980;1254;22533;-69
2023/05/13 14:18:30;;;;;;;;;;;;;;;26.02;25.00;99461.75;135936;1276;25394;-69
2023/05/13 14:21:33;;;;;;;;;;;;;;;25.97;24.45;99460.13;135953;1275;22544;-66
2023/05/13 14:24:36;;;;;;;;;;;;;;;25.72;24.36;99464.42;136011;1276;22515;-67
2023/05/13 14:27:43;;;;;;;;;;;;;;;25.65;24.60;99465.43;136021;1275;22503;-66
2023/05/13 14:30:46;;;;;;;;;;;;;;;25.57;24.61;99467.93;135958;1270;22507;-66
2023/05/13 14:33:48;;;;;;;;;;;;;;;25.46;24.82;99466.99;135831;1270;22525;-65
2023/05/13 14:36:51;;;;;;;;;;;;;;;25.26;25.06;99473.52;135762;1273;22531;-67
2023/05/13 14:39:55;;;;;;;;;;;;;;;25.05;25.35;99467.67;135848;1273;22511;-67
2023/05/13 14:42:58;;;;;;;;;;;;;;;25.24;25.35;99471.42;135860;1273;22505;-64
2023/05/13 14:46:00;;;;;;;;;;;;;;;25.96;25.42;99469.52;135800;1268;22512;-66
2023/05/13 14:49:04;;;;;;;;;;;;;;;26.60;25.21;99465.38;135784;1269;22528;-63
2023/05/13 14:52:07;;;;;;;;;;;;;;;27.54;24.68;99465.05;135755;1273;22524;-63
2023/05/13 14:55:10;;;;;;;;;;;;;;;27.66;24.09;99460.90;135804;1277;22512;-64
2023/05/13 14:58:13;;;;;;;;;;;;;;;27.80;24.29;99461.79;135769;1276;22546;-63
2023/05/13 15:01:16;;;;;;;;;;;;;;;27.84;23.83;99459.61;135762;1277;23372;-65
2023/05/13 15:04:19;;;;;;;;;;;;;;;28.12;24.35;99458.69;135823;1277;22676;-63
2023/05/13 15:07:21;;;;;;;;;;;;;;;28.26;23.79;99457.08;135775;1276;22549;-65
2023/05/13 15:10:23;;;;;;;;;;;;;;;29.17;23.18;99457.46;135776;1277;22508;-64
2023/05/13 15:13:27;;;;;;;;;;;;;;;29.08;22.76;99459.55;135737;1258;22512;-62
2023/05/13 15:16:30;;;;;;;;;;;;;;;28.29;23.33;99465.06;135740;1277;22513;-67
2023/05/13 15:19:34;;;;;;;;;;;;;;;27.87;23.61;99469.48;135764;1277;22509;-68
2023/05/13 15:22:37;;;;;;;;;;;;;;;28.60;23.29;99461.86;135719;1276;22581;-68
2023/05/13 15:25:41;;;;;;;;;;;;;;;31.04;22.26;99452.09;135774;1277;22517;-66
2023/05/13 15:28:45;;;;;;;;;;;;;;;32.68;21.08;99451.20;135789;1258;22552;-65
2023/05/13 15:31:50;;;;;;;;;;;;;;;34.32;20.30;99444.65;135794;1277;24205;-66
2023/05/13 15:34:54;;;;;;;;;;;;;;;35.72;19.76;99447.00;135767;1277;22512;-67
2023/05/13 15:37:58;;;;;;;;;;;;;;;36.77;18.73;99451.21;135783;1277;22513;-66
2023/05/13 15:41:01;;;;;;;;;;;;;;;37.68;18.32;99452.08;135535;1277;22510;-66
2023/05/13 15:44:03;;;;;;;;;;;;;;;37.38;18.38;99454.48;135599;1277;22515;-66